Observations for LARAMIE GEN. BREES, WY (LAR)

KLAR 221304Z AUTO 33016KT 2SM -SN BR OVC024 M11/M12 A2995 RMK AO2 P0000 T11061117
KLAR 221253Z AUTO 32018KT 3SM -SN BR BKN024 OVC036 M11/M12 A2994 RMK AO2 SLP172 P0000 T11061122 
KLAR 221210Z AUTO 33019KT 2 1/2SM -SN BR OVC018 M11/M12 A2993 RMK AO2 P0000 T11061117
KLAR 221219Z AUTO 33018KT 4SM -SN BR OVC018 M11/M12 A2993 RMK AO2 P0000 T11061117
KLAR 221153Z AUTO 33016KT 1 3/4SM -SN BR OVC018 M11/M12 A2992 RMK AO2 SLP160 P0000 60000 70003 T11061117 11094 21106 51026  
KLAR 221142Z AUTO 33019KT 1 1/2SM -SN BR OVC020 M11/M12 A2992 RMK AO2 P0000 T11061117
KLAR 221112Z AUTO 33018KT 1 3/4SM -SN BR BKN023 OVC038 M11/M12 A2990 RMK AO2 P0000 T11061117
KLAR 221120Z AUTO 33019G24KT 2 1/2SM -SN BR BKN022 OVC038 M11/M12 A2991 RMK AO2P0000 T11061117
KLAR 221053Z AUTO 33020G25KT 2SM -SN BR OVC025 M11/M12 A2990 RMK AO2 PK WND 33027/1006 SLP149 P0000 T11061117   
KLAR 221035Z AUTO 33019KT 2SM -SN BR OVC021 M11/M12 A2989 RMK AO2 PK WND 33027/1006 P0000 T11061117
KLAR 220953Z AUTO 33017G27KT 1 1/4SM -SN BR OVC018 M10/M11 A2987 RMK AO2 PK WND 33032/0901 SLP133 P0000 T11001111   
KLAR 220933Z AUTO 33019G29KT 1SM -SN BR VV013 M10/M11 A2985 RMK AO2 PK WND 33032/0901 P0000 T11001111
KLAR 220943Z AUTO 33017G26KT 1 1/4SM -SN BR OVC018 M10/M11 A2987 RMK AO2 PK WND33032/0901 P0000 T11001111
KLAR 220853Z AUTO 33023G33KT 3/4SM -SN BR VV013 M10/M11 A2982 RMK AO2 PK WND 33033/0848 SLP111 P0000 60000 T11001111 51016  
KLAR 220841Z AUTO 33024G32KT 3/4SM -SN BR VV016 M10/M11 A2982 RMK AO2 PK WND 33032/0840 P0000 T11001111
KLAR 220807Z AUTO 33023G30KT 1 1/2SM -SN BR OVC023 M10/M11 A2980 RMK AO2 PK WND33030/0759 P0000 T11001111
KLAR 220753Z AUTO 33025G30KT 2 1/2SM -SN BR OVC023 M10/M11 A2980 RMK AO2 PK WND 33030/0752 SLP098 P0000 T11001111   
KLAR 220710Z AUTO 33024G29KT 1 1/2SM -SN BR OVC027 M09/M11 A2978 RMK AO2 PK WND33030/0701 P0000 T10941111
KLAR 220702Z AUTO 33023G32KT 1 1/2SM -SN BR OVC031 M09/M11 A2977 RMK AO2 PK WND33030/0701 P0000 T10941111
KLAR 220750Z AUTO 33022G29KT 2 1/2SM -SN BR OVC023 M10/M11 A2979 RMK AO2 PK WND33030/0716 P0000
KLAR 220653Z AUTO 33024G35KT 2SM -SN BR OVC033 M09/M11 A2977 RMK AO2 PK WND 33035/0644 SLP083 P0000 T10941111 400671094 
KLAR 220625Z AUTO 33023G30KT 2SM -SN BR OVC021 M09/M11 A2975 RMK AO2 PK WND 33035/0608 P0000 T10941106
KLAR 220642Z AUTO 33024G33KT 1 3/4SM -SN BR OVC031 M09/M11 A2976 RMK AO2 PK WND33035/0608 P0000 T10941111
KLAR 220603Z AUTO 33025G34KT 1 1/2SM -SN BR OVC021 M09/M11 A2973 RMK AO2 PK WND33034/0600 P0000 T10941111
KLAR 220553Z AUTO 33022G32KT 2SM -SN BR OVC023 M09/M11 A2973 RMK AO2 PK WND 33035/0454 UPE12SNB12 SLP070 P0000 60003 T10941111 10000 21094 51024
KLAR 220536Z AUTO 33023G33KT 3SM -SN BR OVC029 M09/M11 A2971 RMK AO2 PK WND 33035/0454 UPE12SNB12 P0000 T10941111
KLAR 220548Z AUTO 33020G34KT 2SM -SN BR OVC023 M09/M11 A2972 RMK AO2 PK WND 33035/0454 UPE12SNB12 P0000
KLAR 220453Z AUTO 33021G34KT 9SM UP OVC039 M09/M11 A2969 RMK AO2 PK WND 33036/0425 UPB40SNE40 SLP055 P0000 T10941111
KLAR 220434Z AUTO 33023G36KT 3SM -SN BR OVC029 M09/M11 A2970 RMK AO2 PK WND 33036/0425 PRESRR P0000 T10941111
KLAR 220410Z AUTO 33025G33KT 1 3/4SM -SN BR OVC028 M08/M10 A2965 RMK AO2 PK WND32035/0358 P0000 T10831100
KLAR 220421Z AUTO 33027G36KT 2SM -SN BR OVC028 M09/M11 A2966 RMK AO2 PK WND 34036/0413 P0000 T10891106
KLAR 220445Z AUTO 33027G34KT 7SM UP OVC033 M09/M11 A2968 RMK AO2 PK WND 33036/0425 UPB40SNE40 P0000 T10891111
KLAR 220353Z AUTO 33027G34KT 1 1/2SM -SN BR OVC030 M08/M09 A2964 RMK AO2 PK WND 33035/0343 SLP042 P0000 T10781094   
KLAR 220325Z AUTO 33024G32KT 3/4SM -SN BR OVC030 M07/M08 A2962 RMK AO2 PK WND 33032/0325 P0000 T10721083
KLAR 220332Z AUTO 33023G34KT 1SM -SN BR OVC030 M07/M09 A2963 RMK AO2 PK WND 33034/0326 P0000 T10721089
KLAR 220305Z AUTO 33022G30KT 1 1/4SM -SN BR FEW016 OVC028 M07/M08 A2961 RMK AO2PK WND 33030/0301 P0000 T10721078
KLAR 220316Z AUTO 33023G31KT 1SM -SN BR OVC032 M07/M08 A2962 RMK AO2 PK WND 33031/0316 P0000 T10721083
KLAR 220253Z AUTO 33024G31KT 2 1/2SM -SN BR FEW012 SCT017 OVC022 M07/M08 A2959 RMK AO2 PK WND 32034/0211 SLP029 P0000 60003 T10671078 53033 
KLAR 220211Z AUTO 32028G34KT 1SM -SN BR FEW009 OVC017 M07/M07 A2956 RMK AO2 PK WND 32034/0211 P0000 T10671072
KLAR 220157Z AUTO 32025G31KT 1SM -SN BR VV015 M06/M07 A2955 RMK AO2 PK WND 32031/0155 P0000 T10611072
KLAR 220153Z AUTO 32024G31KT 3/4SM -SN BR VV014 M06/M07 A2955 RMK AO2 PK WND 32032/0143 SLP013 P0003 T10611072  
KLAR 220143Z AUTO 32027G32KT 3/4SM -SN BR VV010 M06/M07 A2954 RMK AO2 PK WND 32032/0143 P0003 T10611067
KLAR 220110Z AUTO 34018G22KT 1/2SM SN FZFG SCT005 OVC013 M02/M03 A2951 RMK AO2 P0001 T10221028
KLAR 220117Z AUTO 33021G27KT 1/4SM SN FZFG BKN005 OVC015 M04/M04 A2952 RMK AO2 PK WND 32027/0112 P0002 T10391044
KLAR 220100Z AUTO 36004KT 1 3/4SM -SN BR FEW007 BKN016 OVC028 M01/M01 A2950 RMKAO2 P0000 T10111011
KLAR 220053Z AUTO 03005KT 2SM -SN BR FEW011 BKN028 OVC041 M01/M01 A2950 RMK AO2 SNB28 SLP976 P0000 T10111011
KLAR 220036Z AUTO 02004KT 1 3/4SM -SN BR BKN030 OVC041 M01/M02 A2949 RMK AO2 SNB28 P0000 T10061017
KLAR 220051Z AUTO 03005KT 2SM -SN BR FEW011 BKN028 OVC041 M01/M01 A2950 RMK AO2SNB28 P0000
KLAR 212353Z AUTO 25006KT 10SM SCT075 OVC100 00/M03 A2947 RMK AO2 SLP963 60000 T00001033 10067 20000 53011  
KLAR 212253Z AUTO 27017G22KT 10SM FEW030 BKN050 OVC100 02/M03 A2945 RMK AO2 SNB24E40 SLP953 P0000 T00171033 
KLAR 212153Z AUTO 27015KT 10SM SCT039 SCT048 BKN080 03/M04 A2944 RMK AO2 SLP940 T00331044   
KLAR 212053Z AUTO 22019G25KT 10SM FEW095 04/M04 A2943 RMK AO2 PK WND 22036/1954 SLP937 T00391039 55004  
KLAR 211953Z AUTO 22025G38KT 10SM CLR 05/M06 A2940 RMK AO2 PK WND 21042/1925 SLP920 T00501056   
KLAR 211853Z AUTO 22029G39KT 10SM CLR 06/M07 A2941 RMK AO2 PK WND 22042/1822 SLP922 T00611072   
KLAR 211753Z AUTO 22027G45KT 10SM SCT120 06/M07 A2945 RMK AO2 PK WND 23045/1748 SLP931 T00611072 10067 21006 56023  
KLAR 211653Z AUTO 22027G36KT 10SM FEW110 06/M07 A2948 RMK AO2 PK WND 22036/1653 SLP946 T00561072
KLAR 211553Z AUTO 23021G28KT 10SM CLR 03/M07 A2949 RMK AO2 PK WND 22028/1553 SLP953 T00331072   
KLAR 211453Z AUTO 23015KT 10SM CLR 01/M08 A2953 RMK AO2 SLP988 T00061083 56027  
KLAR 211353Z AUTO 23018KT 10SM CLR 01/M09 A2956 RMK AO2 PK WND 23030/1332 SLP997 T00061089  
KLAR 211253Z AUTO 25015KT 10SM CLR 01/M09 A2959 RMK AO2 PK WND 24031/1232 SLP997 T00061089